sensor_id;sensor_type;location;lat;lon;timestamp;P1;durP1;ratioP1;P2;durP2;ratioP2
24799;SDS011;12897;50.812;4.430;2023-03-23T00:02:29;9.18;;;5.00;;
24799;SDS011;12897;50.812;4.430;2023-03-23T00:05:02;7.80;;;4.92;;
24799;SDS011;12897;50.812;4.430;2023-03-23T00:09:59;8.58;;;5.28;;
24799;SDS011;12897;50.812;4.430;2023-03-23T00:12:29;12.90;;;4.90;;
24799;SDS011;12897;50.812;4.430;2023-03-23T00:15:00;7.90;;;5.03;;
24799;SDS011;12897;50.812;4.430;2023-03-23T00:17:30;10.60;;;5.70;;
24799;SDS011;12897;50.812;4.430;2023-03-23T00:20:02;10.93;;;5.30;;
24799;SDS011;12897;50.812;4.430;2023-03-23T00:22:33;7.92;;;4.90;;
24799;SDS011;12897;50.812;4.430;2023-03-23T00:25:03;9.60;;;4.83;;
24799;SDS011;12897;50.812;4.430;2023-03-23T00:27:31;8.10;;;4.40;;
24799;SDS011;12897;50.812;4.430;2023-03-23T00:29:59;8.33;;;4.75;;
24799;SDS011;12897;50.812;4.430;2023-03-23T00:32:27;16.77;;;5.33;;
24799;SDS011;12897;50.812;4.430;2023-03-23T00:34:54;8.75;;;4.62;;
24799;SDS011;12897;50.812;4.430;2023-03-23T00:39:52;12.10;;;4.85;;
24799;SDS011;12897;50.812;4.430;2023-03-23T00:42:21;8.40;;;4.80;;
24799;SDS011;12897;50.812;4.430;2023-03-23T00:44:49;8.55;;;5.05;;
24799;SDS011;12897;50.812;4.430;2023-03-23T00:47:16;6.33;;;4.40;;
24799;SDS011;12897;50.812;4.430;2023-03-23T00:49:44;11.75;;;5.05;;
24799;SDS011;12897;50.812;4.430;2023-03-23T00:52:13;10.90;;;4.83;;
24799;SDS011;12897;50.812;4.430;2023-03-23T00:54:40;10.93;;;5.07;;
24799;SDS011;12897;50.812;4.430;2023-03-23T00:57:08;7.78;;;4.75;;
24799;SDS011;12897;50.812;4.430;2023-03-23T00:59:36;7.97;;;5.25;;
24799;SDS011;12897;50.812;4.430;2023-03-23T01:02:03;9.08;;;4.78;;
24799;SDS011;12897;50.812;4.430;2023-03-23T01:04:31;8.23;;;4.80;;
24799;SDS011;12897;50.812;4.430;2023-03-23T01:07:00;7.60;;;4.83;;
24799;SDS011;12897;50.812;4.430;2023-03-23T01:09:27;7.42;;;5.25;;
24799;SDS011;12897;50.812;4.430;2023-03-23T01:11:55;9.68;;;4.67;;
24799;SDS011;12897;50.812;4.430;2023-03-23T01:14:23;8.45;;;4.92;;
24799;SDS011;12897;50.812;4.430;2023-03-23T01:16:51;9.70;;;4.42;;
24799;SDS011;12897;50.812;4.430;2023-03-23T01:19:18;7.78;;;6.22;;
24799;SDS011;12897;50.812;4.430;2023-03-23T01:21:46;8.18;;;4.75;;
24799;SDS011;12897;50.812;4.430;2023-03-23T01:24:14;7.58;;;4.70;;
24799;SDS011;12897;50.812;4.430;2023-03-23T01:26:42;10.03;;;4.80;;
24799;SDS011;12897;50.812;4.430;2023-03-23T01:29:10;9.73;;;4.67;;
24799;SDS011;12897;50.812;4.430;2023-03-23T01:34:22;9.60;;;4.85;;
24799;SDS011;12897;50.812;4.430;2023-03-23T01:36:49;7.65;;;4.53;;
24799;SDS011;12897;50.812;4.430;2023-03-23T01:39:17;11.45;;;4.72;;
24799;SDS011;12897;50.812;4.430;2023-03-23T01:41:45;6.87;;;4.12;;
24799;SDS011;12897;50.812;4.430;2023-03-23T01:46:46;9.85;;;4.35;;
24799;SDS011;12897;50.812;4.430;2023-03-23T01:49:17;10.32;;;4.47;;
24799;SDS011;12897;50.812;4.430;2023-03-23T01:51:48;7.83;;;4.33;;
24799;SDS011;12897;50.812;4.430;2023-03-23T01:54:19;6.95;;;4.40;;
24799;SDS011;12897;50.812;4.430;2023-03-23T01:57:11;10.25;;;4.65;;
24799;SDS011;12897;50.812;4.430;2023-03-23T01:59:22;7.80;;;4.47;;
24799;SDS011;12897;50.812;4.430;2023-03-23T02:01:52;9.40;;;4.17;;
24799;SDS011;12897;50.812;4.430;2023-03-23T02:04:21;8.28;;;4.55;;
24799;SDS011;12897;50.812;4.430;2023-03-23T02:06:51;11.25;;;4.90;;
24799;SDS011;12897;50.812;4.430;2023-03-23T02:09:22;10.18;;;4.55;;
24799;SDS011;12897;50.812;4.430;2023-03-23T02:11:51;12.50;;;4.20;;
24799;SDS011;12897;50.812;4.430;2023-03-23T02:14:21;10.20;;;6.28;;
24799;SDS011;12897;50.812;4.430;2023-03-23T02:16:53;6.33;;;4.15;;
24799;SDS011;12897;50.812;4.430;2023-03-23T02:19:29;7.00;;;3.70;;
24799;SDS011;12897;50.812;4.430;2023-03-23T02:25:31;6.62;;;3.42;;
24799;SDS011;12897;50.812;4.430;2023-03-23T02:31:20;8.80;;;4.15;;
24799;SDS011;12897;50.812;4.430;2023-03-23T02:34:05;9.58;;;3.52;;
24799;SDS011;12897;50.812;4.430;2023-03-23T02:39:40;10.93;;;4.08;;
24799;SDS011;12897;50.812;4.430;2023-03-23T02:42:09;6.28;;;2.60;;
24799;SDS011;12897;50.812;4.430;2023-03-23T02:44:40;8.05;;;2.85;;
24799;SDS011;12897;50.812;4.430;2023-03-23T02:47:11;10.15;;;2.90;;
24799;SDS011;12897;50.812;4.430;2023-03-23T02:49:42;8.75;;;3.20;;
24799;SDS011;12897;50.812;4.430;2023-03-23T02:52:14;6.50;;;2.80;;
24799;SDS011;12897;50.812;4.430;2023-03-23T02:54:45;8.43;;;2.90;;
24799;SDS011;12897;50.812;4.430;2023-03-23T02:57:14;6.80;;;3.22;;
24799;SDS011;12897;50.812;4.430;2023-03-23T02:59:42;6.90;;;2.35;;
24799;SDS011;12897;50.812;4.430;2023-03-23T03:04:52;6.62;;;2.92;;
24799;SDS011;12897;50.812;4.430;2023-03-23T03:07:41;5.90;;;2.70;;
24799;SDS011;12897;50.812;4.430;2023-03-23T03:10:02;6.22;;;2.55;;
24799;SDS011;12897;50.812;4.430;2023-03-23T03:12:32;4.08;;;2.35;;
24799;SDS011;12897;50.812;4.430;2023-03-23T03:18:09;6.20;;;2.30;;
24799;SDS011;12897;50.812;4.430;2023-03-23T03:20:40;8.58;;;2.47;;
24799;SDS011;12897;50.812;4.430;2023-03-23T03:23:09;11.35;;;2.65;;
24799;SDS011;12897;50.812;4.430;2023-03-23T03:25:39;6.00;;;2.13;;
24799;SDS011;12897;50.812;4.430;2023-03-23T03:28:10;6.17;;;2.37;;
24799;SDS011;12897;50.812;4.430;2023-03-23T03:30:39;5.23;;;2.30;;
24799;SDS011;12897;50.812;4.430;2023-03-23T03:33:10;7.00;;;2.65;;
24799;SDS011;12897;50.812;4.430;2023-03-23T03:35:38;8.68;;;2.65;;
24799;SDS011;12897;50.812;4.430;2023-03-23T03:38:09;9.78;;;2.65;;
24799;SDS011;12897;50.812;4.430;2023-03-23T03:40:37;7.63;;;2.43;;
24799;SDS011;12897;50.812;4.430;2023-03-23T03:43:05;8.85;;;2.37;;
24799;SDS011;12897;50.812;4.430;2023-03-23T03:45:34;10.35;;;2.47;;
24799;SDS011;12897;50.812;4.430;2023-03-23T03:48:01;7.12;;;2.50;;
24799;SDS011;12897;50.812;4.430;2023-03-23T03:50:30;4.65;;;2.50;;
24799;SDS011;12897;50.812;4.430;2023-03-23T03:52:58;8.23;;;2.65;;
24799;SDS011;12897;50.812;4.430;2023-03-23T03:55:26;13.45;;;3.17;;
24799;SDS011;12897;50.812;4.430;2023-03-23T03:57:54;5.85;;;2.55;;
24799;SDS011;12897;50.812;4.430;2023-03-23T04:00:22;10.48;;;2.90;;
24799;SDS011;12897;50.812;4.430;2023-03-23T04:02:50;6.65;;;3.02;;
24799;SDS011;12897;50.812;4.430;2023-03-23T04:05:20;9.40;;;2.73;;
24799;SDS011;12897;50.812;4.430;2023-03-23T04:07:50;10.65;;;2.70;;
24799;SDS011;12897;50.812;4.430;2023-03-23T04:10:22;7.50;;;2.90;;
24799;SDS011;12897;50.812;4.430;2023-03-23T04:12:49;14.23;;;2.77;;
24799;SDS011;12897;50.812;4.430;2023-03-23T04:15:18;11.22;;;2.80;;
24799;SDS011;12897;50.812;4.430;2023-03-23T04:17:45;11.95;;;2.67;;
24799;SDS011;12897;50.812;4.430;2023-03-23T04:20:13;9.50;;;2.33;;
24799;SDS011;12897;50.812;4.430;2023-03-23T04:22:47;13.73;;;2.77;;
24799;SDS011;12897;50.812;4.430;2023-03-23T04:25:14;11.20;;;2.47;;
24799;SDS011;12897;50.812;4.430;2023-03-23T04:27:43;10.78;;;2.25;;
24799;SDS011;12897;50.812;4.430;2023-03-23T04:30:12;6.87;;;2.10;;
24799;SDS011;12897;50.812;4.430;2023-03-23T04:32:40;12.23;;;2.60;;
24799;SDS011;12897;50.812;4.430;2023-03-23T04:35:09;11.35;;;2.22;;
24799;SDS011;12897;50.812;4.430;2023-03-23T04:37:39;9.65;;;2.50;;
24799;SDS011;12897;50.812;4.430;2023-03-23T04:40:09;14.18;;;2.80;;
24799;SDS011;12897;50.812;4.430;2023-03-23T04:42:42;10.05;;;2.37;;
24799;SDS011;12897;50.812;4.430;2023-03-23T04:45:15;8.23;;;2.52;;
24799;SDS011;12897;50.812;4.430;2023-03-23T04:47:49;12.20;;;3.00;;
24799;SDS011;12897;50.812;4.430;2023-03-23T04:50:20;8.75;;;2.22;;
24799;SDS011;12897;50.812;4.430;2023-03-23T04:52:52;10.05;;;2.35;;
24799;SDS011;12897;50.812;4.430;2023-03-23T04:55:23;7.90;;;2.27;;
24799;SDS011;12897;50.812;4.430;2023-03-23T04:57:55;13.15;;;4.05;;
24799;SDS011;12897;50.812;4.430;2023-03-23T05:00:36;11.22;;;2.90;;
24799;SDS011;12897;50.812;4.430;2023-03-23T05:03:13;9.10;;;3.02;;
24799;SDS011;12897;50.812;4.430;2023-03-23T05:08:19;10.80;;;2.85;;
24799;SDS011;12897;50.812;4.430;2023-03-23T05:13:40;8.73;;;2.22;;
24799;SDS011;12897;50.812;4.430;2023-03-23T05:16:19;4.45;;;1.75;;
24799;SDS011;12897;50.812;4.430;2023-03-23T05:18:46;11.28;;;2.00;;
24799;SDS011;12897;50.812;4.430;2023-03-23T05:21:14;9.53;;;2.25;;
24799;SDS011;12897;50.812;4.430;2023-03-23T05:23:42;9.98;;;2.20;;
24799;SDS011;12897;50.812;4.430;2023-03-23T05:26:10;8.85;;;2.30;;
24799;SDS011;12897;50.812;4.430;2023-03-23T05:28:37;7.70;;;2.17;;
24799;SDS011;12897;50.812;4.430;2023-03-23T05:31:06;7.00;;;2.30;;
24799;SDS011;12897;50.812;4.430;2023-03-23T05:33:44;9.93;;;2.37;;
24799;SDS011;12897;50.812;4.430;2023-03-23T05:36:13;10.08;;;2.52;;
24799;SDS011;12897;50.812;4.430;2023-03-23T05:38:42;9.70;;;2.30;;
24799;SDS011;12897;50.812;4.430;2023-03-23T05:41:11;7.83;;;2.53;;
24799;SDS011;12897;50.812;4.430;2023-03-23T05:43:39;10.93;;;3.08;;
24799;SDS011;12897;50.812;4.430;2023-03-23T05:46:07;7.62;;;2.50;;
24799;SDS011;12897;50.812;4.430;2023-03-23T05:48:35;5.58;;;2.12;;
24799;SDS011;12897;50.812;4.430;2023-03-23T05:51:02;9.28;;;2.30;;
24799;SDS011;12897;50.812;4.430;2023-03-23T05:53:30;10.95;;;2.22;;
24799;SDS011;12897;50.812;4.430;2023-03-23T05:55:58;4.20;;;2.22;;
24799;SDS011;12897;50.812;4.430;2023-03-23T05:58:27;11.48;;;2.65;;
24799;SDS011;12897;50.812;4.430;2023-03-23T06:00:56;7.40;;;2.63;;
24799;SDS011;12897;50.812;4.430;2023-03-23T06:03:24;11.75;;;2.70;;
24799;SDS011;12897;50.812;4.430;2023-03-23T06:05:51;8.80;;;2.10;;
24799;SDS011;12897;50.812;4.430;2023-03-23T06:08:19;10.60;;;2.40;;
24799;SDS011;12897;50.812;4.430;2023-03-23T06:10:46;13.98;;;3.33;;
24799;SDS011;12897;50.812;4.430;2023-03-23T06:13:15;12.75;;;2.77;;
24799;SDS011;12897;50.812;4.430;2023-03-23T06:15:42;10.00;;;3.05;;
24799;SDS011;12897;50.812;4.430;2023-03-23T06:18:11;13.20;;;2.93;;
24799;SDS011;12897;50.812;4.430;2023-03-23T06:20:41;7.70;;;2.52;;
24799;SDS011;12897;50.812;4.430;2023-03-23T06:23:10;10.65;;;2.37;;
24799;SDS011;12897;50.812;4.430;2023-03-23T06:25:39;11.75;;;2.98;;
24799;SDS011;12897;50.812;4.430;2023-03-23T06:28:07;10.20;;;2.45;;
24799;SDS011;12897;50.812;4.430;2023-03-23T06:30:35;9.33;;;2.80;;
24799;SDS011;12897;50.812;4.430;2023-03-23T06:33:04;9.30;;;2.70;;
24799;SDS011;12897;50.812;4.430;2023-03-23T06:35:33;8.45;;;2.85;;
24799;SDS011;12897;50.812;4.430;2023-03-23T06:38:01;9.08;;;3.50;;
24799;SDS011;12897;50.812;4.430;2023-03-23T06:40:28;10.98;;;3.08;;
24799;SDS011;12897;50.812;4.430;2023-03-23T06:42:56;12.53;;;2.47;;
24799;SDS011;12897;50.812;4.430;2023-03-23T06:45:26;15.08;;;3.00;;
24799;SDS011;12897;50.812;4.430;2023-03-23T06:47:54;13.00;;;2.72;;
24799;SDS011;12897;50.812;4.430;2023-03-23T06:50:22;9.08;;;2.75;;
24799;SDS011;12897;50.812;4.430;2023-03-23T06:52:50;12.35;;;2.70;;
24799;SDS011;12897;50.812;4.430;2023-03-23T06:55:18;11.08;;;3.27;;
24799;SDS011;12897;50.812;4.430;2023-03-23T06:57:46;8.13;;;2.72;;
24799;SDS011;12897;50.812;4.430;2023-03-23T07:00:14;8.45;;;2.70;;
24799;SDS011;12897;50.812;4.430;2023-03-23T07:02:42;7.10;;;2.70;;
24799;SDS011;12897;50.812;4.430;2023-03-23T07:05:11;11.90;;;3.80;;
24799;SDS011;12897;50.812;4.430;2023-03-23T07:07:43;11.88;;;2.80;;
24799;SDS011;12897;50.812;4.430;2023-03-23T07:10:11;14.45;;;2.98;;
24799;SDS011;12897;50.812;4.430;2023-03-23T07:12:41;10.38;;;2.60;;
24799;SDS011;12897;50.812;4.430;2023-03-23T07:15:08;8.55;;;2.67;;
24799;SDS011;12897;50.812;4.430;2023-03-23T07:17:38;9.43;;;2.90;;
24799;SDS011;12897;50.812;4.430;2023-03-23T07:20:06;7.80;;;3.12;;
24799;SDS011;12897;50.812;4.430;2023-03-23T07:22:35;11.90;;;3.12;;
24799;SDS011;12897;50.812;4.430;2023-03-23T07:25:04;13.95;;;4.08;;
24799;SDS011;12897;50.812;4.430;2023-03-23T07:27:32;11.35;;;2.60;;
24799;SDS011;12897;50.812;4.430;2023-03-23T07:29:59;8.95;;;2.00;;
24799;SDS011;12897;50.812;4.430;2023-03-23T07:32:29;7.83;;;2.45;;
24799;SDS011;12897;50.812;4.430;2023-03-23T07:34:56;7.25;;;1.80;;
24799;SDS011;12897;50.812;4.430;2023-03-23T07:37:24;7.12;;;2.30;;
24799;SDS011;12897;50.812;4.430;2023-03-23T07:39:51;10.18;;;2.50;;
24799;SDS011;12897;50.812;4.430;2023-03-23T07:42:19;8.58;;;2.60;;
24799;SDS011;12897;50.812;4.430;2023-03-23T07:44:47;7.47;;;2.33;;
24799;SDS011;12897;50.812;4.430;2023-03-23T07:47:14;10.55;;;2.95;;
24799;SDS011;12897;50.812;4.430;2023-03-23T07:49:43;10.48;;;2.52;;
24799;SDS011;12897;50.812;4.430;2023-03-23T07:52:11;12.63;;;3.05;;
24799;SDS011;12897;50.812;4.430;2023-03-23T07:54:39;13.53;;;2.75;;
24799;SDS011;12897;50.812;4.430;2023-03-23T07:57:06;6.70;;;2.10;;
24799;SDS011;12897;50.812;4.430;2023-03-23T07:59:36;9.65;;;2.27;;
24799;SDS011;12897;50.812;4.430;2023-03-23T08:02:03;10.08;;;2.15;;
24799;SDS011;12897;50.812;4.430;2023-03-23T08:04:30;15.90;;;2.20;;
24799;SDS011;12897;50.812;4.430;2023-03-23T08:06:59;8.43;;;2.27;;
24799;SDS011;12897;50.812;4.430;2023-03-23T08:09:29;7.87;;;2.35;;
24799;SDS011;12897;50.812;4.430;2023-03-23T08:11:57;6.78;;;1.47;;
24799;SDS011;12897;50.812;4.430;2023-03-23T08:14:25;10.53;;;1.55;;
24799;SDS011;12897;50.812;4.430;2023-03-23T08:16:56;7.87;;;1.53;;
24799;SDS011;12897;50.812;4.430;2023-03-23T08:21:52;7.85;;;1.98;;
24799;SDS011;12897;50.812;4.430;2023-03-23T08:24:19;5.20;;;1.22;;
24799;SDS011;12897;50.812;4.430;2023-03-23T08:26:47;4.95;;;1.90;;
24799;SDS011;12897;50.812;4.430;2023-03-23T08:29:15;6.85;;;1.42;;
24799;SDS011;12897;50.812;4.430;2023-03-23T08:31:44;5.47;;;1.57;;
24799;SDS011;12897;50.812;4.430;2023-03-23T08:34:15;5.80;;;1.40;;
24799;SDS011;12897;50.812;4.430;2023-03-23T08:36:46;5.30;;;1.20;;
24799;SDS011;12897;50.812;4.430;2023-03-23T08:39:14;5.60;;;1.80;;
24799;SDS011;12897;50.812;4.430;2023-03-23T08:41:44;6.05;;;1.55;;
24799;SDS011;12897;50.812;4.430;2023-03-23T08:44:18;4.65;;;1.32;;
24799;SDS011;12897;50.812;4.430;2023-03-23T08:49:10;6.87;;;1.75;;
24799;SDS011;12897;50.812;4.430;2023-03-23T08:51:39;6.40;;;1.42;;
24799;SDS011;12897;50.812;4.430;2023-03-23T08:54:06;9.60;;;1.65;;
24799;SDS011;12897;50.812;4.430;2023-03-23T08:56:34;8.08;;;1.70;;
24799;SDS011;12897;50.812;4.430;2023-03-23T08:59:03;9.98;;;1.95;;
24799;SDS011;12897;50.812;4.430;2023-03-23T09:04:01;7.47;;;2.25;;
24799;SDS011;12897;50.812;4.430;2023-03-23T09:06:30;7.08;;;1.67;;
24799;SDS011;12897;50.812;4.430;2023-03-23T09:08:59;5.53;;;1.67;;
24799;SDS011;12897;50.812;4.430;2023-03-23T09:11:28;5.53;;;1.70;;
24799;SDS011;12897;50.812;4.430;2023-03-23T09:13:58;6.67;;;1.50;;
24799;SDS011;12897;50.812;4.430;2023-03-23T09:16:27;5.30;;;1.62;;
24799;SDS011;12897;50.812;4.430;2023-03-23T09:18:54;7.25;;;2.12;;
24799;SDS011;12897;50.812;4.430;2023-03-23T09:21:24;6.05;;;1.95;;
24799;SDS011;12897;50.812;4.430;2023-03-23T09:23:53;4.08;;;1.50;;
24799;SDS011;12897;50.812;4.430;2023-03-23T09:26:22;6.70;;;1.70;;
24799;SDS011;12897;50.812;4.430;2023-03-23T09:28:52;5.22;;;1.80;;
24799;SDS011;12897;50.812;4.430;2023-03-23T09:31:21;5.40;;;1.82;;
24799;SDS011;12897;50.812;4.430;2023-03-23T09:33:51;5.97;;;1.82;;
24799;SDS011;12897;50.812;4.430;2023-03-23T09:36:21;2.75;;;1.55;;
24799;SDS011;12897;50.812;4.430;2023-03-23T09:38:51;6.45;;;2.17;;
24799;SDS011;12897;50.812;4.430;2023-03-23T09:43:59;6.47;;;1.60;;
24799;SDS011;12897;50.812;4.430;2023-03-23T09:49:32;8.08;;;1.62;;
24799;SDS011;12897;50.812;4.430;2023-03-23T09:52:10;3.12;;;1.77;;
24799;SDS011;12897;50.812;4.430;2023-03-23T09:54:53;3.40;;;1.80;;
24799;SDS011;12897;50.812;4.430;2023-03-23T09:57:41;5.78;;;1.85;;
24799;SDS011;12897;50.812;4.430;2023-03-23T10:00:18;4.58;;;2.17;;
24799;SDS011;12897;50.812;4.430;2023-03-23T10:02:52;6.50;;;2.50;;
24799;SDS011;12897;50.812;4.430;2023-03-23T10:05:46;9.88;;;2.30;;
24799;SDS011;12897;50.812;4.430;2023-03-23T10:08:22;7.12;;;2.60;;
24799;SDS011;12897;50.812;4.430;2023-03-23T10:16:14;4.53;;;2.30;;
24799;SDS011;12897;50.812;4.430;2023-03-23T10:19:11;5.42;;;2.90;;
24799;SDS011;12897;50.812;4.430;2023-03-23T10:21:33;8.43;;;2.20;;
24799;SDS011;12897;50.812;4.430;2023-03-23T10:24:04;6.28;;;2.22;;
24799;SDS011;12897;50.812;4.430;2023-03-23T10:26:37;10.43;;;2.50;;
24799;SDS011;12897;50.812;4.430;2023-03-23T10:29:16;6.87;;;2.25;;
24799;SDS011;12897;50.812;4.430;2023-03-23T10:34:44;7.03;;;2.08;;
24799;SDS011;12897;50.812;4.430;2023-03-23T10:39:54;8.13;;;2.33;;
24799;SDS011;12897;50.812;4.430;2023-03-23T10:42:34;8.50;;;3.00;;
24799;SDS011;12897;50.812;4.430;2023-03-23T10:48:51;8.60;;;2.65;;
24799;SDS011;12897;50.812;4.430;2023-03-23T10:50:35;8.35;;;2.70;;
24799;SDS011;12897;50.812;4.430;2023-03-23T10:53:18;10.85;;;2.60;;
24799;SDS011;12897;50.812;4.430;2023-03-23T10:55:59;7.90;;;2.40;;
24799;SDS011;12897;50.812;4.430;2023-03-23T11:01:31;7.92;;;2.47;;
24799;SDS011;12897;50.812;4.430;2023-03-23T11:04:10;7.05;;;2.77;;
24799;SDS011;12897;50.812;4.430;2023-03-23T11:06:43;8.25;;;2.60;;
24799;SDS011;12897;50.812;4.430;2023-03-23T11:09:15;10.18;;;2.90;;
24799;SDS011;12897;50.812;4.430;2023-03-23T11:11:55;9.30;;;2.67;;
24799;SDS011;12897;50.812;4.430;2023-03-23T11:14:28;12.78;;;3.60;;
24799;SDS011;12897;50.812;4.430;2023-03-23T11:17:19;9.70;;;3.00;;
24799;SDS011;12897;50.812;4.430;2023-03-23T11:19:38;10.47;;;2.73;;
24799;SDS011;12897;50.812;4.430;2023-03-23T11:25:12;13.15;;;3.12;;
24799;SDS011;12897;50.812;4.430;2023-03-23T11:30:33;9.75;;;3.17;;
24799;SDS011;12897;50.812;4.430;2023-03-23T11:33:07;10.82;;;3.45;;
24799;SDS011;12897;50.812;4.430;2023-03-23T11:35:33;11.60;;;3.02;;
24799;SDS011;12897;50.812;4.430;2023-03-23T11:38:10;10.95;;;3.83;;
24799;SDS011;12897;50.812;4.430;2023-03-23T11:40:57;14.78;;;2.80;;
24799;SDS011;12897;50.812;4.430;2023-03-23T11:46:35;11.57;;;2.70;;
24799;SDS011;12897;50.812;4.430;2023-03-23T11:49:25;9.70;;;2.67;;
24799;SDS011;12897;50.812;4.430;2023-03-23T11:52:05;7.83;;;2.10;;
24799;SDS011;12897;50.812;4.430;2023-03-23T11:54:46;7.83;;;2.77;;
24799;SDS011;12897;50.812;4.430;2023-03-23T11:57:14;11.75;;;2.25;;
24799;SDS011;12897;50.812;4.430;2023-03-23T11:59:43;11.93;;;2.58;;
24799;SDS011;12897;50.812;4.430;2023-03-23T12:05:10;6.45;;;2.20;;
24799;SDS011;12897;50.812;4.430;2023-03-23T12:10:31;10.25;;;3.02;;
24799;SDS011;12897;50.812;4.430;2023-03-23T12:13:10;11.50;;;2.50;;
24799;SDS011;12897;50.812;4.430;2023-03-23T12:15:56;13.72;;;2.67;;
24799;SDS011;12897;50.812;4.430;2023-03-23T12:24:43;11.20;;;2.45;;
24799;SDS011;12897;50.812;4.430;2023-03-23T12:27:35;12.78;;;2.37;;
24799;SDS011;12897;50.812;4.430;2023-03-23T12:36:19;17.15;;;3.12;;
24799;SDS011;12897;50.812;4.430;2023-03-23T12:38:44;10.45;;;1.95;;
24799;SDS011;12897;50.812;4.430;2023-03-23T12:41:20;13.70;;;2.90;;
24799;SDS011;12897;50.812;4.430;2023-03-23T12:44:11;17.80;;;2.80;;
24799;SDS011;12897;50.812;4.430;2023-03-23T12:47:14;11.63;;;2.37;;
24799;SDS011;12897;50.812;4.430;2023-03-23T12:49:37;11.30;;;3.20;;
24799;SDS011;12897;50.812;4.430;2023-03-23T12:55:00;14.28;;;2.50;;
24799;SDS011;12897;50.812;4.430;2023-03-23T13:05:34;9.80;;;2.98;;
24799;SDS011;12897;50.812;4.430;2023-03-23T13:08:04;11.20;;;3.30;;
24799;SDS011;12897;50.812;4.430;2023-03-23T13:10:38;19.23;;;3.98;;
24799;SDS011;12897;50.812;4.430;2023-03-23T13:13:04;15.30;;;3.50;;
24799;SDS011;12897;50.812;4.430;2023-03-23T13:18:40;14.20;;;3.35;;
24799;SDS011;12897;50.812;4.430;2023-03-23T13:23:50;15.13;;;2.72;;
24799;SDS011;12897;50.812;4.430;2023-03-23T13:26:21;14.20;;;3.20;;
24799;SDS011;12897;50.812;4.430;2023-03-23T13:28:54;17.10;;;5.00;;
24799;SDS011;12897;50.812;4.430;2023-03-23T13:31:26;10.90;;;2.62;;
24799;SDS011;12897;50.812;4.430;2023-03-23T13:34:03;14.55;;;3.30;;
24799;SDS011;12897;50.812;4.430;2023-03-23T13:39:32;11.43;;;2.45;;
24799;SDS011;12897;50.812;4.430;2023-03-23T13:42:23;15.38;;;2.72;;
24799;SDS011;12897;50.812;4.430;2023-03-23T13:45:05;13.85;;;2.62;;
24799;SDS011;12897;50.812;4.430;2023-03-23T13:47:40;12.00;;;2.52;;
24799;SDS011;12897;50.812;4.430;2023-03-23T13:50:10;9.88;;;2.35;;
24799;SDS011;12897;50.812;4.430;2023-03-23T13:52:50;12.45;;;3.00;;
24799;SDS011;12897;50.812;4.430;2023-03-23T13:55:21;12.25;;;2.65;;
24799;SDS011;12897;50.812;4.430;2023-03-23T14:03:15;16.77;;;3.35;;
24799;SDS011;12897;50.812;4.430;2023-03-23T14:05:49;12.43;;;2.72;;
24799;SDS011;12897;50.812;4.430;2023-03-23T14:08:22;16.70;;;2.90;;
24799;SDS011;12897;50.812;4.430;2023-03-23T14:10:52;18.20;;;3.20;;
24799;SDS011;12897;50.812;4.430;2023-03-23T14:13:30;11.73;;;3.17;;
24799;SDS011;12897;50.812;4.430;2023-03-23T14:16:05;19.10;;;3.47;;
24799;SDS011;12897;50.812;4.430;2023-03-23T14:18:38;21.10;;;3.58;;
24799;SDS011;12897;50.812;4.430;2023-03-23T14:21:13;18.37;;;3.58;;
24799;SDS011;12897;50.812;4.430;2023-03-23T14:23:46;15.78;;;3.55;;
24799;SDS011;12897;50.812;4.430;2023-03-23T14:26:19;16.90;;;3.40;;
24799;SDS011;12897;50.812;4.430;2023-03-23T14:28:50;11.03;;;3.47;;
24799;SDS011;12897;50.812;4.430;2023-03-23T14:31:26;15.65;;;3.83;;
24799;SDS011;12897;50.812;4.430;2023-03-23T14:34:01;19.85;;;3.70;;
24799;SDS011;12897;50.812;4.430;2023-03-23T14:36:28;20.88;;;4.70;;
24799;SDS011;12897;50.812;4.430;2023-03-23T14:39:02;13.85;;;2.98;;
24799;SDS011;12897;50.812;4.430;2023-03-23T14:41:39;19.87;;;4.70;;
24799;SDS011;12897;50.812;4.430;2023-03-23T14:44:11;14.38;;;3.72;;
24799;SDS011;12897;50.812;4.430;2023-03-23T14:46:39;11.50;;;3.50;;
24799;SDS011;12897;50.812;4.430;2023-03-23T14:49:18;13.38;;;3.20;;
24799;SDS011;12897;50.812;4.430;2023-03-23T14:51:47;17.07;;;3.50;;
24799;SDS011;12897;50.812;4.430;2023-03-23T14:54:22;10.70;;;2.87;;
24799;SDS011;12897;50.812;4.430;2023-03-23T14:56:52;8.68;;;2.75;;
24799;SDS011;12897;50.812;4.430;2023-03-23T14:59:20;15.50;;;3.20;;
24799;SDS011;12897;50.812;4.430;2023-03-23T15:01:50;14.67;;;3.57;;
24799;SDS011;12897;50.812;4.430;2023-03-23T15:04:23;13.08;;;3.10;;
24799;SDS011;12897;50.812;4.430;2023-03-23T15:06:50;9.90;;;2.60;;
24799;SDS011;12897;50.812;4.430;2023-03-23T15:09:20;13.05;;;3.00;;
24799;SDS011;12897;50.812;4.430;2023-03-23T15:11:55;11.75;;;3.10;;
24799;SDS011;12897;50.812;4.430;2023-03-23T15:14:25;14.53;;;2.90;;
24799;SDS011;12897;50.812;4.430;2023-03-23T15:16:54;12.13;;;3.15;;
24799;SDS011;12897;50.812;4.430;2023-03-23T15:19:25;14.80;;;3.12;;
24799;SDS011;12897;50.812;4.430;2023-03-23T15:22:24;10.20;;;3.17;;
24799;SDS011;12897;50.812;4.430;2023-03-23T15:24:38;10.68;;;3.00;;
24799;SDS011;12897;50.812;4.430;2023-03-23T15:27:11;14.18;;;3.87;;
24799;SDS011;12897;50.812;4.430;2023-03-23T15:32:22;13.83;;;3.45;;
24799;SDS011;12897;50.812;4.430;2023-03-23T15:34:51;14.35;;;3.47;;
24799;SDS011;12897;50.812;4.430;2023-03-23T15:37:27;18.37;;;4.27;;
24799;SDS011;12897;50.812;4.430;2023-03-23T15:39:57;12.75;;;3.60;;
24799;SDS011;12897;50.812;4.430;2023-03-23T15:42:30;16.00;;;3.58;;
24799;SDS011;12897;50.812;4.430;2023-03-23T15:45:12;13.60;;;3.72;;
24799;SDS011;12897;50.812;4.430;2023-03-23T15:50:16;13.58;;;3.80;;
24799;SDS011;12897;50.812;4.430;2023-03-23T15:52:49;15.08;;;3.45;;
24799;SDS011;12897;50.812;4.430;2023-03-23T15:55:22;16.25;;;3.92;;
24799;SDS011;12897;50.812;4.430;2023-03-23T15:57:51;17.27;;;3.55;;
24799;SDS011;12897;50.812;4.430;2023-03-23T16:00:21;15.85;;;3.45;;
24799;SDS011;12897;50.812;4.430;2023-03-23T16:02:58;15.50;;;3.47;;
24799;SDS011;12897;50.812;4.430;2023-03-23T16:05:28;10.18;;;3.55;;
24799;SDS011;12897;50.812;4.430;2023-03-23T16:08:01;12.87;;;3.87;;
24799;SDS011;12897;50.812;4.430;2023-03-23T16:10:25;15.28;;;3.27;;
24799;SDS011;12897;50.812;4.430;2023-03-23T16:12:56;15.93;;;3.90;;
24799;SDS011;12897;50.812;4.430;2023-03-23T16:15:24;20.10;;;3.47;;
24799;SDS011;12897;50.812;4.430;2023-03-23T16:17:52;13.38;;;4.08;;
24799;SDS011;12897;50.812;4.430;2023-03-23T16:20:20;13.78;;;3.33;;
24799;SDS011;12897;50.812;4.430;2023-03-23T16:22:50;12.00;;;3.65;;
24799;SDS011;12897;50.812;4.430;2023-03-23T16:25:19;11.12;;;2.80;;
24799;SDS011;12897;50.812;4.430;2023-03-23T16:27:46;22.27;;;3.95;;
24799;SDS011;12897;50.812;4.430;2023-03-23T16:30:17;11.00;;;3.25;;
24799;SDS011;12897;50.812;4.430;2023-03-23T16:32:47;11.97;;;3.00;;
24799;SDS011;12897;50.812;4.430;2023-03-23T16:35:14;13.13;;;3.40;;
24799;SDS011;12897;50.812;4.430;2023-03-23T16:37:46;16.85;;;3.12;;
24799;SDS011;12897;50.812;4.430;2023-03-23T16:40:16;11.30;;;3.10;;
24799;SDS011;12897;50.812;4.430;2023-03-23T16:42:45;18.80;;;3.92;;
24799;SDS011;12897;50.812;4.430;2023-03-23T16:45:13;21.10;;;3.37;;
24799;SDS011;12897;50.812;4.430;2023-03-23T16:47:42;12.47;;;2.98;;
24799;SDS011;12897;50.812;4.430;2023-03-23T16:50:11;18.37;;;2.83;;
24799;SDS011;12897;50.812;4.430;2023-03-23T16:52:41;17.32;;;3.70;;
24799;SDS011;12897;50.812;4.430;2023-03-23T16:55:10;16.75;;;3.52;;
24799;SDS011;12897;50.812;4.430;2023-03-23T16:57:38;17.12;;;3.47;;
24799;SDS011;12897;50.812;4.430;2023-03-23T17:00:07;18.73;;;3.65;;
24799;SDS011;12897;50.812;4.430;2023-03-23T17:02:39;17.37;;;3.52;;